sensor_id;sensor_type;location;lat;lon;timestamp;temperature;humidity
75451;DHT22;64029;48.244;9.188;2022-12-07T00:01:53;2.10;86.60
75451;DHT22;64029;48.244;9.188;2022-12-07T00:04:20;2.10;86.40
75451;DHT22;64029;48.244;9.188;2022-12-07T00:06:51;2.10;86.40
75451;DHT22;64029;48.244;9.188;2022-12-07T00:09:19;2.10;86.50
75451;DHT22;64029;48.244;9.188;2022-12-07T00:11:48;2.10;86.40
75451;DHT22;64029;48.244;9.188;2022-12-07T00:14:16;2.10;86.50
75451;DHT22;64029;48.244;9.188;2022-12-07T00:16:44;2.10;86.40
75451;DHT22;64029;48.244;9.188;2022-12-07T00:19:12;2.00;86.40
75451;DHT22;64029;48.244;9.188;2022-12-07T00:21:40;2.00;86.40
75451;DHT22;64029;48.244;9.188;2022-12-07T00:24:08;2.00;86.50
75451;DHT22;64029;48.244;9.188;2022-12-07T00:26:38;2.10;86.60
75451;DHT22;64029;48.244;9.188;2022-12-07T00:29:08;2.00;86.50
75451;DHT22;64029;48.244;9.188;2022-12-07T00:31:37;2.00;86.50
75451;DHT22;64029;48.244;9.188;2022-12-07T00:34:05;2.00;86.50
75451;DHT22;64029;48.244;9.188;2022-12-07T00:36:32;2.00;86.50
75451;DHT22;64029;48.244;9.188;2022-12-07T00:39:00;2.00;86.60
75451;DHT22;64029;48.244;9.188;2022-12-07T00:41:28;2.10;86.60
75451;DHT22;64029;48.244;9.188;2022-12-07T00:43:57;2.00;86.60
75451;DHT22;64029;48.244;9.188;2022-12-07T00:46:24;2.00;86.60
75451;DHT22;64029;48.244;9.188;2022-12-07T00:48:53;2.00;86.60
75451;DHT22;64029;48.244;9.188;2022-12-07T00:51:21;2.00;86.50
75451;DHT22;64029;48.244;9.188;2022-12-07T00:53:49;2.00;86.50
75451;DHT22;64029;48.244;9.188;2022-12-07T00:56:18;2.00;86.60
75451;DHT22;64029;48.244;9.188;2022-12-07T00:58:50;2.00;86.60
75451;DHT22;64029;48.244;9.188;2022-12-07T01:01:18;2.00;86.50
75451;DHT22;64029;48.244;9.188;2022-12-07T01:03:45;2.00;86.60
75451;DHT22;64029;48.244;9.188;2022-12-07T01:06:14;2.00;86.60
75451;DHT22;64029;48.244;9.188;2022-12-07T01:08:42;2.00;86.70
75451;DHT22;64029;48.244;9.188;2022-12-07T01:11:13;2.00;86.60
75451;DHT22;64029;48.244;9.188;2022-12-07T01:13:40;2.00;86.60
75451;DHT22;64029;48.244;9.188;2022-12-07T01:16:07;2.00;86.60
75451;DHT22;64029;48.244;9.188;2022-12-07T01:18:36;2.00;86.80
75451;DHT22;64029;48.244;9.188;2022-12-07T01:21:06;2.00;86.70
75451;DHT22;64029;48.244;9.188;2022-12-07T01:23:33;2.00;86.60
75451;DHT22;64029;48.244;9.188;2022-12-07T01:26:02;2.00;86.60
75451;DHT22;64029;48.244;9.188;2022-12-07T01:28:29;2.10;86.70
75451;DHT22;64029;48.244;9.188;2022-12-07T01:31:00;2.00;86.70
75451;DHT22;64029;48.244;9.188;2022-12-07T01:33:29;2.00;86.70
75451;DHT22;64029;48.244;9.188;2022-12-07T01:36:02;2.00;86.70
75451;DHT22;64029;48.244;9.188;2022-12-07T01:38:30;2.00;86.60
75451;DHT22;64029;48.244;9.188;2022-12-07T01:40:57;2.10;86.70
75451;DHT22;64029;48.244;9.188;2022-12-07T01:43:27;2.00;86.70
75451;DHT22;64029;48.244;9.188;2022-12-07T01:45:54;2.00;86.70
75451;DHT22;64029;48.244;9.188;2022-12-07T01:48:25;2.00;86.70
75451;DHT22;64029;48.244;9.188;2022-12-07T01:50:54;2.00;86.70
75451;DHT22;64029;48.244;9.188;2022-12-07T01:53:25;2.00;86.70
75451;DHT22;64029;48.244;9.188;2022-12-07T01:55:55;2.00;86.60
75451;DHT22;64029;48.244;9.188;2022-12-07T01:58:23;2.10;86.70
75451;DHT22;64029;48.244;9.188;2022-12-07T02:00:50;2.00;86.60
75451;DHT22;64029;48.244;9.188;2022-12-07T02:03:19;2.00;86.70
75451;DHT22;64029;48.244;9.188;2022-12-07T02:05:49;2.00;86.70
75451;DHT22;64029;48.244;9.188;2022-12-07T02:08:17;2.00;86.90
75451;DHT22;64029;48.244;9.188;2022-12-07T02:10:46;2.00;86.80
75451;DHT22;64029;48.244;9.188;2022-12-07T02:13:15;2.10;87.60
75451;DHT22;64029;48.244;9.188;2022-12-07T02:15:58;2.00;86.70
75451;DHT22;64029;48.244;9.188;2022-12-07T02:18:39;2.00;86.90
75451;DHT22;64029;48.244;9.188;2022-12-07T02:21:12;2.00;86.90
75451;DHT22;64029;48.244;9.188;2022-12-07T02:24:09;2.00;86.90
75451;DHT22;64029;48.244;9.188;2022-12-07T02:29:45;2.00;86.90
75451;DHT22;64029;48.244;9.188;2022-12-07T02:32:16;2.00;86.80
75451;DHT22;64029;48.244;9.188;2022-12-07T02:34:49;2.00;86.80
75451;DHT22;64029;48.244;9.188;2022-12-07T02:37:25;2.00;86.90
75451;DHT22;64029;48.244;9.188;2022-12-07T02:39:57;2.00;86.90
75451;DHT22;64029;48.244;9.188;2022-12-07T02:42:31;2.00;86.90
75451;DHT22;64029;48.244;9.188;2022-12-07T02:45:01;2.00;87.30
75451;DHT22;64029;48.244;9.188;2022-12-07T02:47:29;2.00;87.80
75451;DHT22;64029;48.244;9.188;2022-12-07T02:49:58;2.00;87.00
75451;DHT22;64029;48.244;9.188;2022-12-07T02:52:25;2.00;87.10
75451;DHT22;64029;48.244;9.188;2022-12-07T02:54:52;2.00;87.20
75451;DHT22;64029;48.244;9.188;2022-12-07T02:57:30;2.00;87.20
75451;DHT22;64029;48.244;9.188;2022-12-07T03:00:07;2.00;87.10
75451;DHT22;64029;48.244;9.188;2022-12-07T03:02:53;2.00;86.90
75451;DHT22;64029;48.244;9.188;2022-12-07T03:08:14;2.00;87.80
75451;DHT22;64029;48.244;9.188;2022-12-07T03:10:49;2.00;86.90
75451;DHT22;64029;48.244;9.188;2022-12-07T03:13:24;2.00;86.90
75451;DHT22;64029;48.244;9.188;2022-12-07T03:15:57;2.00;86.90
75451;DHT22;64029;48.244;9.188;2022-12-07T03:18:28;2.00;87.00
75451;DHT22;64029;48.244;9.188;2022-12-07T03:21:00;2.00;87.00
75451;DHT22;64029;48.244;9.188;2022-12-07T03:23:29;2.00;87.00
75451;DHT22;64029;48.244;9.188;2022-12-07T03:26:00;2.00;87.00
75451;DHT22;64029;48.244;9.188;2022-12-07T03:28:31;2.00;87.00
75451;DHT22;64029;48.244;9.188;2022-12-07T03:31:03;2.00;87.00
75451;DHT22;64029;48.244;9.188;2022-12-07T03:33:37;2.00;87.00
75451;DHT22;64029;48.244;9.188;2022-12-07T03:36:11;2.00;86.90
75451;DHT22;64029;48.244;9.188;2022-12-07T03:38:42;1.90;86.80
75451;DHT22;64029;48.244;9.188;2022-12-07T03:41:16;2.00;87.00
75451;DHT22;64029;48.244;9.188;2022-12-07T03:43:45;2.00;87.00
75451;DHT22;64029;48.244;9.188;2022-12-07T03:46:19;2.00;86.90
75451;DHT22;64029;48.244;9.188;2022-12-07T03:48:55;2.00;87.00
75451;DHT22;64029;48.244;9.188;2022-12-07T03:51:30;2.00;87.00
75451;DHT22;64029;48.244;9.188;2022-12-07T03:54:05;2.00;87.00
75451;DHT22;64029;48.244;9.188;2022-12-07T03:56:35;2.00;87.10
75451;DHT22;64029;48.244;9.188;2022-12-07T03:59:02;2.00;87.00
75451;DHT22;64029;48.244;9.188;2022-12-07T04:01:31;2.00;87.00
75451;DHT22;64029;48.244;9.188;2022-12-07T04:03:58;2.00;86.90
75451;DHT22;64029;48.244;9.188;2022-12-07T04:06:25;2.00;87.00
75451;DHT22;64029;48.244;9.188;2022-12-07T04:08:52;2.00;87.00
75451;DHT22;64029;48.244;9.188;2022-12-07T04:11:18;2.00;87.00
75451;DHT22;64029;48.244;9.188;2022-12-07T04:13:45;1.90;86.80
75451;DHT22;64029;48.244;9.188;2022-12-07T04:16:31;1.90;86.80
75451;DHT22;64029;48.244;9.188;2022-12-07T04:18:58;1.90;86.80
75451;DHT22;64029;48.244;9.188;2022-12-07T04:21:25;1.90;86.70
75451;DHT22;64029;48.244;9.188;2022-12-07T04:23:52;1.90;86.60
75451;DHT22;64029;48.244;9.188;2022-12-07T04:26:19;1.90;86.60
75451;DHT22;64029;48.244;9.188;2022-12-07T04:28:46;1.90;86.60
75451;DHT22;64029;48.244;9.188;2022-12-07T04:31:12;1.90;86.60
75451;DHT22;64029;48.244;9.188;2022-12-07T04:33:41;1.90;86.50
75451;DHT22;64029;48.244;9.188;2022-12-07T04:36:08;1.90;86.50
75451;DHT22;64029;48.244;9.188;2022-12-07T04:38:34;1.80;86.40
75451;DHT22;64029;48.244;9.188;2022-12-07T04:41:04;1.90;86.50
75451;DHT22;64029;48.244;9.188;2022-12-07T04:43:32;1.80;86.30
75451;DHT22;64029;48.244;9.188;2022-12-07T04:45:59;1.80;86.30
75451;DHT22;64029;48.244;9.188;2022-12-07T04:48:26;1.80;86.30
75451;DHT22;64029;48.244;9.188;2022-12-07T04:50:54;1.80;86.20
75451;DHT22;64029;48.244;9.188;2022-12-07T04:53:21;1.80;86.20
75451;DHT22;64029;48.244;9.188;2022-12-07T04:55:48;1.80;86.10
75451;DHT22;64029;48.244;9.188;2022-12-07T04:58:15;1.70;86.10
75451;DHT22;64029;48.244;9.188;2022-12-07T05:00:41;1.70;86.20
75451;DHT22;64029;48.244;9.188;2022-12-07T05:03:08;1.70;86.10
75451;DHT22;64029;48.244;9.188;2022-12-07T05:05:35;1.70;86.00
75451;DHT22;64029;48.244;9.188;2022-12-07T05:08:04;1.70;86.20
75451;DHT22;64029;48.244;9.188;2022-12-07T05:10:30;1.70;86.30
75451;DHT22;64029;48.244;9.188;2022-12-07T05:12:57;1.70;86.90
75451;DHT22;64029;48.244;9.188;2022-12-07T05:15:24;1.70;86.20
75451;DHT22;64029;48.244;9.188;2022-12-07T05:17:51;1.70;86.20
75451;DHT22;64029;48.244;9.188;2022-12-07T05:20:18;1.70;86.10
75451;DHT22;64029;48.244;9.188;2022-12-07T05:22:45;1.70;86.00
75451;DHT22;64029;48.244;9.188;2022-12-07T05:25:14;1.60;85.90
75451;DHT22;64029;48.244;9.188;2022-12-07T05:27:41;1.60;85.90
75451;DHT22;64029;48.244;9.188;2022-12-07T05:30:08;1.60;86.00
75451;DHT22;64029;48.244;9.188;2022-12-07T05:32:35;1.60;86.00
75451;DHT22;64029;48.244;9.188;2022-12-07T05:35:03;1.60;86.10
75451;DHT22;64029;48.244;9.188;2022-12-07T05:37:29;1.60;86.00
75451;DHT22;64029;48.244;9.188;2022-12-07T05:39:57;1.60;86.00
75451;DHT22;64029;48.244;9.188;2022-12-07T05:42:25;1.60;86.00
75451;DHT22;64029;48.244;9.188;2022-12-07T05:44:52;1.60;86.00
75451;DHT22;64029;48.244;9.188;2022-12-07T05:47:19;1.60;86.00
75451;DHT22;64029;48.244;9.188;2022-12-07T05:49:45;1.60;86.00
75451;DHT22;64029;48.244;9.188;2022-12-07T05:52:12;1.60;85.90
75451;DHT22;64029;48.244;9.188;2022-12-07T05:54:39;1.60;85.90
75451;DHT22;64029;48.244;9.188;2022-12-07T05:57:06;1.60;85.90
75451;DHT22;64029;48.244;9.188;2022-12-07T05:59:34;1.60;85.80
75451;DHT22;64029;48.244;9.188;2022-12-07T06:02:02;1.60;85.80
75451;DHT22;64029;48.244;9.188;2022-12-07T06:04:31;1.50;85.80
75451;DHT22;64029;48.244;9.188;2022-12-07T06:06:59;1.60;85.80
75451;DHT22;64029;48.244;9.188;2022-12-07T06:09:27;1.50;85.60
75451;DHT22;64029;48.244;9.188;2022-12-07T06:11:54;1.50;86.30
75451;DHT22;64029;48.244;9.188;2022-12-07T06:14:40;1.50;85.60
75451;DHT22;64029;48.244;9.188;2022-12-07T06:17:07;1.50;85.60
75451;DHT22;64029;48.244;9.188;2022-12-07T06:19:34;1.50;85.50
75451;DHT22;64029;48.244;9.188;2022-12-07T06:22:02;1.50;85.50
75451;DHT22;64029;48.244;9.188;2022-12-07T06:24:30;1.40;85.40
75451;DHT22;64029;48.244;9.188;2022-12-07T06:26:57;1.40;85.40
75451;DHT22;64029;48.244;9.188;2022-12-07T06:29:24;1.40;85.40
75451;DHT22;64029;48.244;9.188;2022-12-07T06:31:53;1.40;85.40
75451;DHT22;64029;48.244;9.188;2022-12-07T06:34:21;1.40;85.40
75451;DHT22;64029;48.244;9.188;2022-12-07T06:36:49;1.40;85.30
75451;DHT22;64029;48.244;9.188;2022-12-07T06:39:17;1.30;85.10
75451;DHT22;64029;48.244;9.188;2022-12-07T06:41:45;1.30;85.20
75451;DHT22;64029;48.244;9.188;2022-12-07T06:44:12;1.30;85.20
75451;DHT22;64029;48.244;9.188;2022-12-07T06:46:39;1.20;85.00
75451;DHT22;64029;48.244;9.188;2022-12-07T06:49:07;1.20;85.00
75451;DHT22;64029;48.244;9.188;2022-12-07T06:51:37;1.20;85.00
75451;DHT22;64029;48.244;9.188;2022-12-07T06:54:07;1.20;84.80
75451;DHT22;64029;48.244;9.188;2022-12-07T06:56:34;1.20;84.70
75451;DHT22;64029;48.244;9.188;2022-12-07T06:59:01;1.10;84.50
75451;DHT22;64029;48.244;9.188;2022-12-07T07:01:28;1.10;84.50
75451;DHT22;64029;48.244;9.188;2022-12-07T07:03:55;1.00;84.40
75451;DHT22;64029;48.244;9.188;2022-12-07T07:06:23;1.00;84.40
75451;DHT22;64029;48.244;9.188;2022-12-07T07:08:50;1.00;84.50
75451;DHT22;64029;48.244;9.188;2022-12-07T07:11:17;0.90;84.50
75451;DHT22;64029;48.244;9.188;2022-12-07T07:13:44;0.90;84.60
75451;DHT22;64029;48.244;9.188;2022-12-07T07:16:11;0.90;84.70
75451;DHT22;64029;48.244;9.188;2022-12-07T07:18:38;0.90;84.70
75451;DHT22;64029;48.244;9.188;2022-12-07T07:21:05;0.80;84.60
75451;DHT22;64029;48.244;9.188;2022-12-07T07:23:33;0.80;84.70
75451;DHT22;64029;48.244;9.188;2022-12-07T07:26:00;0.80;84.60
75451;DHT22;64029;48.244;9.188;2022-12-07T07:28:27;0.80;84.60
75451;DHT22;64029;48.244;9.188;2022-12-07T07:30:54;0.70;84.60
75451;DHT22;64029;48.244;9.188;2022-12-07T07:33:21;0.70;84.60
75451;DHT22;64029;48.244;9.188;2022-12-07T07:35:47;0.70;84.60
75451;DHT22;64029;48.244;9.188;2022-12-07T07:38:14;0.60;84.50
75451;DHT22;64029;48.244;9.188;2022-12-07T07:40:43;0.60;84.50
75451;DHT22;64029;48.244;9.188;2022-12-07T07:43:09;0.60;84.50
75451;DHT22;64029;48.244;9.188;2022-12-07T07:45:36;0.60;84.50
75451;DHT22;64029;48.244;9.188;2022-12-07T07:48:03;0.60;85.10
75451;DHT22;64029;48.244;9.188;2022-12-07T07:50:30;0.60;84.40
75451;DHT22;64029;48.244;9.188;2022-12-07T07:52:57;0.50;84.30
75451;DHT22;64029;48.244;9.188;2022-12-07T07:55:24;0.50;84.30
75451;DHT22;64029;48.244;9.188;2022-12-07T07:57:52;0.50;84.20
75451;DHT22;64029;48.244;9.188;2022-12-07T08:00:21;0.50;84.20
75451;DHT22;64029;48.244;9.188;2022-12-07T08:02:48;0.50;84.20
75451;DHT22;64029;48.244;9.188;2022-12-07T08:05:15;0.50;84.30
75451;DHT22;64029;48.244;9.188;2022-12-07T08:07:42;0.50;84.30
75451;DHT22;64029;48.244;9.188;2022-12-07T08:10:11;0.50;84.40
75451;DHT22;64029;48.244;9.188;2022-12-07T08:12:39;0.50;84.40
75451;DHT22;64029;48.244;9.188;2022-12-07T08:15:30;0.50;84.60
75451;DHT22;64029;48.244;9.188;2022-12-07T08:17:57;0.60;84.80
75451;DHT22;64029;48.244;9.188;2022-12-07T08:20:24;0.50;84.60
75451;DHT22;64029;48.244;9.188;2022-12-07T08:22:51;0.60;84.60
75451;DHT22;64029;48.244;9.188;2022-12-07T08:25:18;0.50;84.30
75451;DHT22;64029;48.244;9.188;2022-12-07T08:27:45;0.50;84.20
75451;DHT22;64029;48.244;9.188;2022-12-07T08:30:12;0.50;84.20
75451;DHT22;64029;48.244;9.188;2022-12-07T08:32:40;0.60;84.30
75451;DHT22;64029;48.244;9.188;2022-12-07T08:35:08;0.60;84.20
75451;DHT22;64029;48.244;9.188;2022-12-07T08:37:35;0.60;84.10
75451;DHT22;64029;48.244;9.188;2022-12-07T08:40:03;0.60;84.10
75451;DHT22;64029;48.244;9.188;2022-12-07T08:42:30;0.70;84.50
75451;DHT22;64029;48.244;9.188;2022-12-07T08:45:04;0.70;84.30
75451;DHT22;64029;48.244;9.188;2022-12-07T08:47:32;0.80;84.10
75451;DHT22;64029;48.244;9.188;2022-12-07T08:50:01;0.80;83.60
75451;DHT22;64029;48.244;9.188;2022-12-07T08:52:29;0.90;82.90
75451;DHT22;64029;48.244;9.188;2022-12-07T08:54:56;1.00;82.90
75451;DHT22;64029;48.244;9.188;2022-12-07T08:57:24;1.00;82.60
75451;DHT22;64029;48.244;9.188;2022-12-07T08:59:51;1.10;82.40
75451;DHT22;64029;48.244;9.188;2022-12-07T09:02:18;1.10;82.70
75451;DHT22;64029;48.244;9.188;2022-12-07T09:04:45;1.10;82.40
75451;DHT22;64029;48.244;9.188;2022-12-07T09:07:13;1.20;82.70
75451;DHT22;64029;48.244;9.188;2022-12-07T09:09:40;1.20;82.10
75451;DHT22;64029;48.244;9.188;2022-12-07T09:12:07;1.20;82.20
75451;DHT22;64029;48.244;9.188;2022-12-07T09:14:34;1.30;81.00
75451;DHT22;64029;48.244;9.188;2022-12-07T09:17:06;1.30;81.30
75451;DHT22;64029;48.244;9.188;2022-12-07T09:19:33;1.30;81.70
75451;DHT22;64029;48.244;9.188;2022-12-07T09:22:00;1.40;79.60
75451;DHT22;64029;48.244;9.188;2022-12-07T09:24:29;1.40;79.70
75451;DHT22;64029;48.244;9.188;2022-12-07T09:26:56;1.50;78.10
75451;DHT22;64029;48.244;9.188;2022-12-07T09:29:23;1.60;78.20
75451;DHT22;64029;48.244;9.188;2022-12-07T09:31:50;1.60;78.50
75451;DHT22;64029;48.244;9.188;2022-12-07T09:34:18;1.60;78.80
75451;DHT22;64029;48.244;9.188;2022-12-07T09:36:45;1.70;78.80
75451;DHT22;64029;48.244;9.188;2022-12-07T09:39:12;1.60;79.00
75451;DHT22;64029;48.244;9.188;2022-12-07T09:41:42;1.60;79.50
75451;DHT22;64029;48.244;9.188;2022-12-07T09:44:13;1.70;80.70
75451;DHT22;64029;48.244;9.188;2022-12-07T09:46:42;1.70;80.70
75451;DHT22;64029;48.244;9.188;2022-12-07T09:49:12;1.70;80.60
75451;DHT22;64029;48.244;9.188;2022-12-07T09:51:41;1.80;78.90
75451;DHT22;64029;48.244;9.188;2022-12-07T09:54:11;1.80;79.20
75451;DHT22;64029;48.244;9.188;2022-12-07T09:56:40;1.80;80.10
75451;DHT22;64029;48.244;9.188;2022-12-07T09:59:13;1.80;80.10
75451;DHT22;64029;48.244;9.188;2022-12-07T10:01:43;1.90;80.20
75451;DHT22;64029;48.244;9.188;2022-12-07T10:04:13;1.90;79.30
75451;DHT22;64029;48.244;9.188;2022-12-07T10:06:41;2.00;79.20
75451;DHT22;64029;48.244;9.188;2022-12-07T10:09:12;2.00;79.00
75451;DHT22;64029;48.244;9.188;2022-12-07T10:11:59;2.10;78.70
75451;DHT22;64029;48.244;9.188;2022-12-07T10:14:27;2.10;79.20
75451;DHT22;64029;48.244;9.188;2022-12-07T10:16:54;2.20;79.10
75451;DHT22;64029;48.244;9.188;2022-12-07T10:19:24;2.20;79.70
75451;DHT22;64029;48.244;9.188;2022-12-07T10:22:04;2.10;80.00
75451;DHT22;64029;48.244;9.188;2022-12-07T10:24:31;2.20;80.30
75451;DHT22;64029;48.244;9.188;2022-12-07T10:27:00;2.20;80.90
75451;DHT22;64029;48.244;9.188;2022-12-07T10:29:30;2.20;81.30
75451;DHT22;64029;48.244;9.188;2022-12-07T10:31:59;2.30;80.00
75451;DHT22;64029;48.244;9.188;2022-12-07T10:34:27;2.30;80.20
75451;DHT22;64029;48.244;9.188;2022-12-07T10:37:14;2.30;80.00
75451;DHT22;64029;48.244;9.188;2022-12-07T10:39:43;2.30;80.50
75451;DHT22;64029;48.244;9.188;2022-12-07T10:42:18;2.40;79.70
75451;DHT22;64029;48.244;9.188;2022-12-07T10:44:46;2.40;80.70
75451;DHT22;64029;48.244;9.188;2022-12-07T10:47:27;2.40;81.10
75451;DHT22;64029;48.244;9.188;2022-12-07T10:50:22;2.50;80.80
75451;DHT22;64029;48.244;9.188;2022-12-07T10:53:04;2.50;81.10
75451;DHT22;64029;48.244;9.188;2022-12-07T10:55:45;2.50;80.60
75451;DHT22;64029;48.244;9.188;2022-12-07T10:58:34;2.50;80.40
75451;DHT22;64029;48.244;9.188;2022-12-07T11:01:10;2.50;80.50
75451;DHT22;64029;48.244;9.188;2022-12-07T11:03:53;2.60;81.00
75451;DHT22;64029;48.244;9.188;2022-12-07T11:06:27;2.60;80.60
75451;DHT22;64029;48.244;9.188;2022-12-07T11:12:08;2.70;80.40
75451;DHT22;64029;48.244;9.188;2022-12-07T11:14:44;2.70;81.30
75451;DHT22;64029;48.244;9.188;2022-12-07T11:17:17;2.70;81.00
75451;DHT22;64029;48.244;9.188;2022-12-07T11:19:54;2.70;80.30
75451;DHT22;64029;48.244;9.188;2022-12-07T11:22:32;2.90;75.70
75451;DHT22;64029;48.244;9.188;2022-12-07T11:25:15;2.90;76.00
75451;DHT22;64029;48.244;9.188;2022-12-07T11:27:48;2.90;77.30
75451;DHT22;64029;48.244;9.188;2022-12-07T11:30:22;2.90;74.30
75451;DHT22;64029;48.244;9.188;2022-12-07T11:33:04;2.90;76.80
75451;DHT22;64029;48.244;9.188;2022-12-07T11:35:48;3.00;75.80
75451;DHT22;64029;48.244;9.188;2022-12-07T11:38:21;2.90;77.60
75451;DHT22;64029;48.244;9.188;2022-12-07T11:40:53;2.90;77.50
75451;DHT22;64029;48.244;9.188;2022-12-07T11:43:45;2.90;78.10
75451;DHT22;64029;48.244;9.188;2022-12-07T11:46:17;3.00;77.50
75451;DHT22;64029;48.244;9.188;2022-12-07T11:48:47;3.00;76.90
75451;DHT22;64029;48.244;9.188;2022-12-07T11:51:20;3.00;77.60
75451;DHT22;64029;48.244;9.188;2022-12-07T11:53:52;3.00;77.60
75451;DHT22;64029;48.244;9.188;2022-12-07T11:56:21;3.00;77.90
75451;DHT22;64029;48.244;9.188;2022-12-07T11:58:51;3.00;78.30
75451;DHT22;64029;48.244;9.188;2022-12-07T12:01:41;3.00;77.60
75451;DHT22;64029;48.244;9.188;2022-12-07T12:04:22;3.00;77.60
75451;DHT22;64029;48.244;9.188;2022-12-07T12:06:50;3.00;77.10
75451;DHT22;64029;48.244;9.188;2022-12-07T12:09:21;3.00;76.40
75451;DHT22;64029;48.244;9.188;2022-12-07T12:12:02;3.10;77.90
75451;DHT22;64029;48.244;9.188;2022-12-07T12:14:48;3.10;77.90
75451;DHT22;64029;48.244;9.188;2022-12-07T12:17:39;3.10;77.00
75451;DHT22;64029;48.244;9.188;2022-12-07T12:20:21;3.10;77.50
75451;DHT22;64029;48.244;9.188;2022-12-07T12:22:53;3.10;78.50
75451;DHT22;64029;48.244;9.188;2022-12-07T12:25:26;3.10;78.00
75451;DHT22;64029;48.244;9.188;2022-12-07T12:27:56;3.10;77.50
75451;DHT22;64029;48.244;9.188;2022-12-07T12:30:30;3.10;77.80
75451;DHT22;64029;48.244;9.188;2022-12-07T12:33:04;3.10;76.50
75451;DHT22;64029;48.244;9.188;2022-12-07T12:35:33;3.10;76.90
75451;DHT22;64029;48.244;9.188;2022-12-07T12:38:25;3.20;79.00
75451;DHT22;64029;48.244;9.188;2022-12-07T12:40:53;3.20;77.60
75451;DHT22;64029;48.244;9.188;2022-12-07T12:46:54;3.10;75.90
75451;DHT22;64029;48.244;9.188;2022-12-07T12:49:54;3.10;77.90
75451;DHT22;64029;48.244;9.188;2022-12-07T12:52:59;3.10;77.40
75451;DHT22;64029;48.244;9.188;2022-12-07T12:56:00;3.10;77.70
75451;DHT22;64029;48.244;9.188;2022-12-07T12:58:40;3.10;76.30
75451;DHT22;64029;48.244;9.188;2022-12-07T13:01:38;3.20;77.50
75451;DHT22;64029;48.244;9.188;2022-12-07T13:07:14;3.10;76.90
75451;DHT22;64029;48.244;9.188;2022-12-07T13:10:02;3.20;77.70
75451;DHT22;64029;48.244;9.188;2022-12-07T13:12:29;3.10;76.20
75451;DHT22;64029;48.244;9.188;2022-12-07T13:14:57;3.10;76.90
75451;DHT22;64029;48.244;9.188;2022-12-07T13:17:59;3.10;76.70
75451;DHT22;64029;48.244;9.188;2022-12-07T13:20:50;3.10;77.50
75451;DHT22;64029;48.244;9.188;2022-12-07T13:23:51;3.10;77.10
75451;DHT22;64029;48.244;9.188;2022-12-07T13:26:21;3.10;76.90
75451;DHT22;64029;48.244;9.188;2022-12-07T13:28:50;3.00;76.50
75451;DHT22;64029;48.244;9.188;2022-12-07T13:31:32;3.10;77.30
75451;DHT22;64029;48.244;9.188;2022-12-07T13:34:00;3.10;76.70
75451;DHT22;64029;48.244;9.188;2022-12-07T13:36:30;3.10;76.90
75451;DHT22;64029;48.244;9.188;2022-12-07T13:39:16;3.10;75.60
75451;DHT22;64029;48.244;9.188;2022-12-07T13:41:48;3.10;76.50
75451;DHT22;64029;48.244;9.188;2022-12-07T13:44:16;3.10;77.00
75451;DHT22;64029;48.244;9.188;2022-12-07T13:46:49;3.10;75.80
75451;DHT22;64029;48.244;9.188;2022-12-07T13:49:21;3.10;76.90
75451;DHT22;64029;48.244;9.188;2022-12-07T13:51:49;3.10;78.00
75451;DHT22;64029;48.244;9.188;2022-12-07T13:54:18;3.20;78.20
75451;DHT22;64029;48.244;9.188;2022-12-07T13:56:48;3.20;77.70
75451;DHT22;64029;48.244;9.188;2022-12-07T13:59:18;3.10;77.00
75451;DHT22;64029;48.244;9.188;2022-12-07T14:01:46;3.20;78.10
75451;DHT22;64029;48.244;9.188;2022-12-07T14:04:30;3.20;77.20
75451;DHT22;64029;48.244;9.188;2022-12-07T14:06:58;3.20;76.80
75451;DHT22;64029;48.244;9.188;2022-12-07T14:09:29;3.20;77.10
75451;DHT22;64029;48.244;9.188;2022-12-07T14:11:57;3.20;77.00
75451;DHT22;64029;48.244;9.188;2022-12-07T14:14:26;3.20;77.70
75451;DHT22;64029;48.244;9.188;2022-12-07T14:17:00;3.20;78.10
75451;DHT22;64029;48.244;9.188;2022-12-07T14:19:46;3.20;78.20
75451;DHT22;64029;48.244;9.188;2022-12-07T14:22:24;3.10;76.90
75451;DHT22;64029;48.244;9.188;2022-12-07T14:25:01;3.20;78.40
75451;DHT22;64029;48.244;9.188;2022-12-07T14:27:32;3.20;78.60
75451;DHT22;64029;48.244;9.188;2022-12-07T14:30:00;3.20;78.00
75451;DHT22;64029;48.244;9.188;2022-12-07T14:32:29;3.10;78.30
75451;DHT22;64029;48.244;9.188;2022-12-07T14:35:00;3.10;78.20
75451;DHT22;64029;48.244;9.188;2022-12-07T14:37:28;3.10;78.10
75451;DHT22;64029;48.244;9.188;2022-12-07T14:39:56;3.10;78.30
75451;DHT22;64029;48.244;9.188;2022-12-07T14:42:27;3.10;77.90
75451;DHT22;64029;48.244;9.188;2022-12-07T14:44:55;3.00;77.60
75451;DHT22;64029;48.244;9.188;2022-12-07T14:47:23;3.00;77.40
75451;DHT22;64029;48.244;9.188;2022-12-07T14:49:50;3.00;77.90
75451;DHT22;64029;48.244;9.188;2022-12-07T14:52:19;3.00;78.30
75451;DHT22;64029;48.244;9.188;2022-12-07T14:54:47;3.00;78.50
75451;DHT22;64029;48.244;9.188;2022-12-07T14:57:14;3.00;78.60
75451;DHT22;64029;48.244;9.188;2022-12-07T14:59:42;3.00;78.60
75451;DHT22;64029;48.244;9.188;2022-12-07T15:02:11;3.00;78.60
75451;DHT22;64029;48.244;9.188;2022-12-07T15:04:38;3.00;78.60
75451;DHT22;64029;48.244;9.188;2022-12-07T15:07:10;3.00;78.60
75451;DHT22;64029;48.244;9.188;2022-12-07T15:09:39;2.90;78.80
75451;DHT22;64029;48.244;9.188;2022-12-07T15:12:06;2.90;78.70
75451;DHT22;64029;48.244;9.188;2022-12-07T15:14:32;2.90;78.80
75451;DHT22;64029;48.244;9.188;2022-12-07T15:17:01;2.90;78.80
75451;DHT22;64029;48.244;9.188;2022-12-07T15:19:28;2.90;78.90
75451;DHT22;64029;48.244;9.188;2022-12-07T15:21:55;2.80;78.40
75451;DHT22;64029;48.244;9.188;2022-12-07T15:24:22;2.80;78.40
75451;DHT22;64029;48.244;9.188;2022-12-07T15:26:50;2.80;78.40
75451;DHT22;64029;48.244;9.188;2022-12-07T15:29:17;2.70;78.30
75451;DHT22;64029;48.244;9.188;2022-12-07T15:31:43;2.70;78.30
75451;DHT22;64029;48.244;9.188;2022-12-07T15:34:12;2.60;78.20
75451;DHT22;64029;48.244;9.188;2022-12-07T15:36:39;2.50;78.00
75451;DHT22;64029;48.244;9.188;2022-12-07T15:39:06;2.50;77.90
75451;DHT22;64029;48.244;9.188;2022-12-07T15:41:33;2.40;77.70
75451;DHT22;64029;48.244;9.188;2022-12-07T15:43:59;2.40;77.80
75451;DHT22;64029;48.244;9.188;2022-12-07T15:46:44;2.40;78.20
75451;DHT22;64029;48.244;9.188;2022-12-07T15:49:14;2.30;78.30
75451;DHT22;64029;48.244;9.188;2022-12-07T15:51:42;2.30;78.40
75451;DHT22;64029;48.244;9.188;2022-12-07T15:54:13;2.20;78.40
75451;DHT22;64029;48.244;9.188;2022-12-07T15:56:42;2.20;78.40
75451;DHT22;64029;48.244;9.188;2022-12-07T15:59:09;2.10;78.40
75451;DHT22;64029;48.244;9.188;2022-12-07T16:01:35;2.10;78.50
75451;DHT22;64029;48.244;9.188;2022-12-07T16:04:02;2.10;78.50
75451;DHT22;64029;48.244;9.188;2022-12-07T16:06:31;2.00;78.30
75451;DHT22;64029;48.244;9.188;2022-12-07T16:08:58;2.00;78.50
75451;DHT22;64029;48.244;9.188;2022-12-07T16:11:25;2.00;78.50
75451;DHT22;64029;48.244;9.188;2022-12-07T16:13:51;1.90;78.40
75451;DHT22;64029;48.244;9.188;2022-12-07T16:16:19;1.90;78.30
75451;DHT22;64029;48.244;9.188;2022-12-07T16:18:48;1.80;78.30
75451;DHT22;64029;48.244;9.188;2022-12-07T16:21:17;1.80;78.30
75451;DHT22;64029;48.244;9.188;2022-12-07T16:23:45;1.80;78.40